createdAt,value
2023-05-14T00:13:23.115Z,1.6
2023-05-14T00:18:39.827Z,1.3
2023-05-14T00:23:58.150Z,1.28
2023-05-14T00:29:14.477Z,1.26
2023-05-14T00:34:30.955Z,1.41
2023-05-14T00:39:47.346Z,1.15
2023-05-14T00:45:04.242Z,1.17
2023-05-14T00:50:22.870Z,1.26
2023-05-14T00:55:38.398Z,1.54
2023-05-14T01:00:54.496Z,1.41
2023-05-14T01:06:10.147Z,1.39
2023-05-14T01:11:25.792Z,1.28
2023-05-14T01:16:42.117Z,1.28
2023-05-14T01:21:59.191Z,1.22
2023-05-14T01:27:14.742Z,1.27
2023-05-14T01:32:30.625Z,1.26
2023-05-14T01:37:46.253Z,1.33
2023-05-14T01:43:03.007Z,1.24
2023-05-14T01:48:20.342Z,1.25
2023-05-14T01:53:35.992Z,1.39
2023-05-14T01:58:53.089Z,1.31
2023-05-14T02:04:09.886Z,1.46
2023-05-14T02:09:25.992Z,1.65
2023-05-14T02:14:42.117Z,1.37
2023-05-14T02:19:59.041Z,1.25
2023-05-14T02:25:16.405Z,1.23
2023-05-14T02:30:32.335Z,1.33
2023-05-14T02:35:48.104Z,1.25
2023-05-14T02:41:03.992Z,1.29
2023-05-14T02:46:19.730Z,1.45
2023-05-14T02:51:36.311Z,1.41
2023-05-14T02:56:53.236Z,1.27
2023-05-14T03:02:11.530Z,1.65
2023-05-14T03:07:27.027Z,1.34
2023-05-14T03:12:43.819Z,1.3
2023-05-14T03:17:42.062Z,1.31
2023-05-14T03:22:58.909Z,1.2
2023-05-14T03:28:15.668Z,1.34
2023-05-14T04:15:48.729Z,1.26
2023-05-14T04:20:58.377Z,1.25
2023-05-14T04:26:15.037Z,1.3
2023-05-14T04:31:31.236Z,1.18
2023-05-14T04:36:48.291Z,1.19
2023-05-14T04:42:04.641Z,1.17
2023-05-14T04:47:21.982Z,1.29
2023-05-14T04:52:39.895Z,1.17
2023-05-14T04:57:57.328Z,1.25
2023-05-14T05:03:13.828Z,1.63
2023-05-14T05:08:30.085Z,1.35
2023-05-14T05:13:46.379Z,1.29
2023-05-14T05:19:04.148Z,1.33
2023-05-14T05:24:20.027Z,1.47
2023-05-14T05:29:35.978Z,1.29
2023-05-14T05:34:51.556Z,1.37
2023-05-14T05:40:07.358Z,1.59
2023-05-14T05:45:23.014Z,1.91
2023-05-14T05:50:39.381Z,1.74
2023-05-14T05:55:55.102Z,1.7
2023-05-14T06:01:11.872Z,1.67
2023-05-14T06:06:29.736Z,1.75
2023-05-14T06:11:46.650Z,1.7
2023-05-14T06:17:02.858Z,1.69
2023-05-14T06:22:19.008Z,1.69
2023-05-14T06:27:35.952Z,1.75
2023-05-14T06:32:53.330Z,1.63
2023-05-14T06:38:10.427Z,1.66
2023-05-14T06:43:26.939Z,1.64
2023-05-14T06:48:43.816Z,1.79
2023-05-14T06:54:00.550Z,1.44
2023-05-14T06:59:17.341Z,1.47
2023-05-14T07:04:36.633Z,1.38
2023-05-14T07:09:51.648Z,1.35
2023-05-14T07:52:09.856Z,1.09
2023-05-14T07:57:19.593Z,1.01
2023-05-14T08:02:37.202Z,1.01
2023-05-14T08:07:53.246Z,1.01
2023-05-14T08:13:09.327Z,1.08
2023-05-14T08:18:27.082Z,1
2023-05-14T08:23:43.360Z,0.92
2023-05-14T08:28:59.443Z,0.91
2023-05-14T08:34:16.554Z,0.92
2023-05-14T08:39:32.904Z,0.95
2023-05-14T08:44:50.270Z,0.92
2023-05-14T08:50:08.006Z,0.89
2023-05-14T08:55:23.501Z,0.92
2023-05-14T09:00:40.744Z,0.95
2023-05-14T09:06:00.520Z,0.86
2023-05-14T09:11:13.532Z,0.94
2023-05-14T09:16:30.096Z,0.88
2023-05-14T09:21:46.739Z,0.98
2023-05-14T09:27:03.520Z,0.91
2023-05-14T09:32:20.837Z,0.87
2023-05-14T09:37:36.465Z,0.77
2023-05-14T09:42:53.559Z,0.81
2023-05-14T09:48:11.218Z,0.76
2023-05-14T09:53:27.179Z,0.81
2023-05-14T09:58:44.508Z,0.8
2023-05-14T10:04:01.818Z,0.87
2023-05-14T10:09:17.635Z,0.78
2023-05-14T10:14:35.198Z,0.84
2023-05-14T10:19:52.582Z,0.8
2023-05-14T10:25:09.121Z,0.83
2023-05-14T10:30:27.754Z,0.82
2023-05-14T10:35:42.617Z,0.78
2023-05-14T10:40:58.545Z,0.78
2023-05-14T10:46:17.491Z,0.83
2023-05-14T10:51:34.163Z,0.82
2023-05-14T11:33:53.933Z,0.93
2023-05-14T11:39:03.300Z,0.84
2023-05-14T11:44:19.491Z,0.82
2023-05-14T11:49:36.241Z,0.88
2023-05-14T11:54:53.091Z,0.87
2023-05-14T12:00:09.244Z,0.85
2023-05-14T13:14:08.291Z,0.83
2023-05-14T13:19:18.172Z,0.82
2023-05-14T13:24:34.930Z,0.86
2023-05-14T14:02:06.915Z,0.8
2023-05-14T14:07:22.478Z,0.81
2023-05-14T14:12:39.283Z,0.81
2023-05-14T14:17:56.398Z,0.81
2023-05-14T14:23:12.274Z,0.88
2023-05-14T14:28:21.987Z,0.86
2023-05-14T14:33:39.377Z,0.88
2023-05-14T14:38:54.700Z,0.91
2023-05-14T14:44:11.751Z,0.91
2023-05-14T14:49:29.616Z,0.87
2023-05-14T14:54:46.673Z,0.86
2023-05-14T15:00:03.104Z,0.85
2023-05-14T15:05:17.416Z,0.86
2023-05-14T15:10:34.164Z,0.87
2023-05-14T15:15:51.445Z,0.91
2023-05-14T15:21:06.709Z,0.85
2023-05-14T15:26:22.953Z,0.86
2023-05-14T15:31:39.121Z,0.91
2023-05-14T15:36:55.164Z,0.87
2023-05-14T15:42:12.061Z,0.86
2023-05-14T15:47:28.799Z,0.88
2023-05-14T15:52:45.482Z,0.91
2023-05-14T15:58:01.225Z,0.86
2023-05-14T16:13:51.572Z,0.89
2023-05-14T16:19:08.190Z,0.85
2023-05-14T16:24:24.261Z,0.84
2023-05-14T16:29:41.512Z,0.85
2023-05-14T16:34:56.831Z,0.85
2023-05-14T16:40:13.052Z,0.85
2023-05-14T16:45:30.865Z,0.84
2023-05-14T16:50:46.610Z,0.86
2023-05-14T16:56:04.489Z,0.86
2023-05-14T17:01:21.179Z,1.26
2023-05-14T17:06:37.869Z,0.87
2023-05-14T17:11:54.593Z,0.91
2023-05-14T18:15:17.380Z,0.86
2023-05-14T18:20:35.868Z,0.84
2023-05-14T18:25:50.354Z,0.83
2023-05-14T18:31:06.897Z,0.82
2023-05-14T18:36:21.406Z,0.82
2023-05-14T18:41:37.566Z,0.84
2023-05-14T18:46:53.688Z,0.84
2023-05-14T18:52:09.877Z,0.98
2023-05-14T18:57:25.390Z,0.91
2023-05-14T19:02:42.232Z,0.89
2023-05-14T19:07:56.421Z,0.88
2023-05-14T19:13:13.209Z,0.88
2023-05-14T19:18:29.105Z,0.92
2023-05-14T19:23:46.174Z,0.94
2023-05-14T19:29:02.370Z,0.93
2023-05-14T19:44:47.487Z,0.97
2023-05-14T19:50:03.982Z,1.04
2023-05-14T19:55:22.099Z,1
2023-05-14T20:00:38.537Z,0.99
2023-05-14T20:05:56.084Z,1.03
2023-05-14T20:11:13.420Z,0.92
2023-05-14T20:16:30.141Z,1.04
2023-05-14T20:21:47.107Z,0.98
2023-05-14T20:27:03.858Z,1.04
2023-05-14T20:32:43.444Z,1.08
2023-05-14T20:38:16.396Z,0.99
2023-05-14T20:43:32.825Z,1.06
2023-05-14T20:48:49.620Z,1.03
2023-05-14T20:54:05.024Z,0.96
2023-05-14T20:59:22.494Z,0.96
2023-05-14T21:04:40.036Z,1
2023-05-14T21:09:56.074Z,1.02
2023-05-14T21:15:13.533Z,1.08
2023-05-14T21:20:29.105Z,1.05
2023-05-14T21:25:46.467Z,0.95
2023-05-14T21:31:03.329Z,0.98
2023-05-14T21:36:20.603Z,1.08
2023-05-14T21:41:37.494Z,1
2023-05-14T21:46:54.122Z,1.05
2023-05-14T21:52:11.205Z,1.08
2023-05-14T21:57:34.904Z,1.04
2023-05-14T22:02:45.940Z,1.01
2023-05-14T22:08:02.559Z,1.02
2023-05-14T22:13:18.315Z,1.03
2023-05-14T22:18:36.170Z,1.02
2023-05-14T22:23:52.014Z,1.06
2023-05-14T22:29:08.059Z,0.99
2023-05-14T22:34:26.284Z,1.08
2023-05-14T22:39:42.912Z,1.03
2023-05-14T23:27:19.969Z,1.02
2023-05-14T23:32:30.760Z,1.05
2023-05-14T23:37:47.729Z,1
2023-05-14T23:43:03.841Z,1
2023-05-14T23:48:22.046Z,1.04
2023-05-14T23:53:39.437Z,1.02
2023-05-14T23:58:57.121Z,0.96
